createdAt,value
2023-01-11T00:00:11.454Z,65.33
2023-01-11T00:02:39.420Z,66.49
2023-01-11T00:05:11.007Z,65.17
2023-01-11T00:07:40.927Z,65.15
2023-01-11T00:10:12.572Z,65.52
2023-01-11T00:12:40.493Z,65.14
2023-01-11T00:15:08.806Z,65.55
2023-01-11T00:17:37.394Z,64.96
2023-01-11T00:20:05.452Z,66.48
2023-01-11T00:22:32.779Z,66.51
2023-01-11T00:25:01.139Z,64.88
2023-01-11T00:27:30.329Z,65.11
2023-01-11T00:29:58.190Z,64.66
2023-01-11T00:32:27.299Z,64.21
2023-01-11T00:34:55.383Z,64.34
2023-01-11T00:37:23.616Z,64.15
2023-01-11T00:39:53.681Z,64.64
2023-01-11T00:42:39.840Z,65.99
2023-01-11T00:45:27.116Z,65.37
2023-01-11T00:47:57.925Z,65.23
2023-01-11T00:50:32.550Z,65.65
2023-01-11T00:53:00.993Z,65.84
2023-01-11T00:55:29.256Z,65.83
2023-01-11T00:58:01.512Z,64.67
2023-01-11T01:00:30.413Z,65.01
2023-01-11T01:02:58.409Z,65.04
2023-01-11T01:05:27.026Z,65.30
2023-01-11T01:07:55.327Z,65.83
2023-01-11T01:10:23.126Z,66.64
2023-01-11T01:13:09.922Z,65.94
2023-01-11T01:15:39.976Z,67.33
2023-01-11T01:18:07.932Z,65.14
2023-01-11T01:20:35.947Z,66.61
2023-01-11T01:23:03.809Z,66.74
2023-01-11T01:25:31.588Z,66.67
2023-01-11T01:27:59.606Z,66.47
2023-01-11T01:30:27.936Z,66.75
2023-01-11T01:32:56.797Z,66.80
2023-01-11T01:35:24.644Z,65.77
2023-01-11T01:37:52.310Z,66.87
2023-01-11T01:40:19.953Z,66.66
2023-01-11T01:42:47.465Z,67.98
2023-01-11T01:45:25.988Z,67.20
2023-01-11T01:48:01.325Z,64.53
2023-01-11T01:50:37.095Z,66.25
2023-01-11T01:53:11.332Z,65.19
2023-01-11T01:55:41.694Z,65.59
2023-01-11T01:58:13.371Z,65.31
2023-01-11T02:00:41.935Z,65.68
2023-01-11T02:03:12.196Z,66.09
2023-01-11T02:05:40.997Z,64.75
2023-01-11T02:08:12.177Z,65.50
2023-01-11T02:10:40.288Z,64.83
2023-01-11T02:13:11.115Z,64.11
2023-01-11T02:15:39.232Z,64.33
2023-01-11T02:18:10.525Z,66.01
2023-01-11T02:20:54.269Z,64.98
2023-01-11T02:23:30.626Z,65.96
2023-01-11T02:26:10.596Z,65.45
2023-01-11T02:28:47.090Z,65.22
2023-01-11T02:31:30.783Z,65.39
2023-01-11T02:34:11.136Z,64.75
2023-01-11T02:37:09.999Z,65.19
2023-01-11T02:40:04.484Z,65.49
2023-01-11T02:43:05.798Z,65.43
2023-01-11T02:45:55.979Z,64.95
2023-01-11T02:48:35.963Z,65.79
2023-01-11T02:51:08.087Z,66.85
2023-01-11T02:53:56.989Z,65.44
2023-01-11T02:56:31.305Z,66.88
2023-01-11T02:59:02.505Z,68.08
2023-01-11T03:01:30.795Z,67.52
2023-01-11T03:03:58.764Z,68.49
2023-01-11T03:06:31.090Z,67.80
2023-01-11T03:08:58.953Z,67.48
2023-01-11T03:12:06.827Z,65.93
2023-01-11T03:14:56.473Z,65.28
2023-01-11T03:17:42.928Z,65.51
2023-01-11T03:20:20.478Z,65.77
2023-01-11T03:23:10.596Z,65.57
2023-01-11T03:25:51.585Z,65.54
2023-01-11T03:28:26.114Z,65.77
2023-01-11T03:31:08.480Z,66.73
2023-01-11T03:33:39.666Z,67.29
2023-01-11T03:36:23.798Z,65.54
2023-01-11T03:38:57.974Z,65.69
2023-01-11T03:41:29.996Z,66.50
2023-01-11T03:43:58.190Z,66.57
2023-01-11T03:46:39.084Z,67.51
2023-01-11T03:49:21.195Z,67.18
2023-01-11T03:51:51.854Z,67.78
2023-01-11T03:54:27.022Z,67.28
2023-01-11T03:57:07.050Z,66.35
2023-01-11T03:59:35.490Z,65.67
2023-01-11T04:02:03.268Z,66.43
2023-01-11T04:04:32.004Z,66.94
2023-01-11T04:06:59.933Z,65.79
2023-01-11T04:09:27.944Z,65.84
2023-01-11T04:11:56.223Z,66.86
2023-01-11T04:14:23.681Z,66.53
2023-01-11T04:16:51.352Z,66.60
2023-01-11T04:19:19.170Z,65.97
2023-01-11T04:21:47.006Z,65.96
2023-01-11T04:24:14.777Z,65.94
2023-01-11T04:26:42.823Z,65.50
2023-01-11T04:29:11.344Z,64.87
2023-01-11T04:31:39.415Z,65.69
2023-01-11T04:34:07.980Z,65.57
2023-01-11T04:36:36.092Z,66.42
2023-01-11T04:39:04.985Z,64.98
2023-01-11T04:41:51.864Z,64.51
2023-01-11T04:44:19.695Z,64.55
2023-01-11T04:46:49.980Z,65.08
2023-01-11T04:49:19.309Z,65.42
2023-01-11T04:51:46.927Z,64.23
2023-01-11T04:54:16.662Z,64.58
2023-01-11T04:56:44.821Z,64.09
2023-01-11T04:59:18.106Z,63.93
2023-01-11T05:01:50.975Z,64.12
2023-01-11T05:04:19.011Z,64.70
2023-01-11T05:06:48.157Z,64.69
2023-01-11T05:09:18.012Z,65.48
2023-01-11T05:11:46.072Z,65.72
2023-01-11T05:14:15.678Z,65.40
2023-01-11T05:16:44.571Z,63.44
2023-01-11T05:19:15.996Z,63.13
2023-01-11T05:21:45.875Z,63.09
2023-01-11T05:24:16.383Z,64.83
2023-01-11T05:26:45.883Z,65.13
2023-01-11T05:29:21.137Z,66.29
2023-01-11T05:31:50.790Z,64.76
2023-01-11T05:34:22.086Z,64.94
2023-01-11T05:36:51.505Z,64.81
2023-01-11T05:39:19.940Z,65.18
2023-01-11T05:41:48.180Z,64.81
2023-01-11T05:44:35.695Z,64.06
2023-01-11T05:47:04.328Z,63.87
2023-01-11T05:49:33.310Z,64.41
2023-01-11T05:52:02.999Z,65.12
2023-01-11T05:54:31.971Z,65.31
2023-01-11T05:57:03.952Z,64.53
2023-01-11T05:59:32.293Z,63.68
2023-01-11T06:02:00.583Z,63.43
2023-01-11T06:04:30.867Z,63.74
2023-01-11T06:07:00.585Z,64.24
2023-01-11T06:09:29.006Z,63.66
2023-01-11T06:11:57.251Z,63.43
2023-01-11T06:14:30.055Z,63.39
2023-01-11T06:17:03.190Z,63.64
2023-01-11T06:19:31.164Z,63.63
2023-01-11T06:21:59.131Z,63.61
2023-01-11T06:24:28.236Z,64.23
2023-01-11T06:26:56.251Z,63.44
2023-01-11T06:29:24.432Z,63.02
2023-01-11T06:31:53.375Z,63.08
2023-01-11T06:34:21.319Z,63.16
2023-01-11T06:36:49.236Z,63.93
2023-01-11T06:39:17.295Z,63.17
2023-01-11T06:41:45.350Z,63.61
2023-01-11T06:44:13.557Z,63.41
2023-01-11T06:46:42.346Z,64.13
2023-01-11T06:49:11.754Z,64.55
2023-01-11T06:51:41.337Z,63.22
2023-01-11T06:54:09.545Z,63.42
2023-01-11T06:56:37.638Z,63.30
2023-01-11T06:59:06.130Z,63.85
2023-01-11T07:01:34.430Z,64.55
2023-01-11T07:04:02.192Z,63.32
2023-01-11T07:06:32.140Z,63.64
2023-01-11T07:08:59.813Z,62.95
2023-01-11T07:11:32.447Z,63.42
2023-01-11T07:14:03.903Z,63.13
2023-01-11T07:16:32.277Z,63.43
2023-01-11T07:19:01.662Z,63.84
2023-01-11T07:21:30.337Z,63.83
2023-01-11T07:23:58.484Z,63.21
2023-01-11T07:26:28.328Z,63.66
2023-01-11T07:28:56.289Z,63.29
2023-01-11T07:31:26.142Z,63.44
2023-01-11T07:33:54.498Z,63.10
2023-01-11T07:36:25.001Z,63.22
2023-01-11T07:38:53.076Z,62.47
2023-01-11T07:41:39.808Z,62.56
2023-01-11T07:44:12.190Z,62.38
2023-01-11T07:46:41.069Z,62.74
2023-01-11T07:49:09.060Z,62.50
2023-01-11T07:54:12.009Z,62.16
2023-01-11T07:56:41.408Z,62.04
2023-01-11T07:59:09.955Z,62.24
2023-01-11T08:01:39.480Z,61.73
2023-01-11T08:04:12.094Z,61.95
2023-01-11T08:06:40.445Z,61.79
2023-01-11T08:09:09.658Z,61.96
2023-01-11T08:11:57.091Z,61.63
2023-01-11T08:14:41.628Z,61.71
2023-01-11T08:17:14.907Z,61.16
2023-01-11T08:19:45.060Z,61.87
2023-01-11T08:22:21.096Z,62.66
2023-01-11T08:24:51.309Z,61.91
2023-01-11T08:27:19.353Z,61.52
2023-01-11T08:29:50.586Z,60.69
2023-01-11T08:32:18.103Z,61.15
2023-01-11T08:34:50.837Z,60.49
2023-01-11T08:37:20.001Z,60.54
2023-01-11T08:39:49.813Z,59.95
2023-01-11T08:42:19.201Z,59.53
2023-01-11T08:44:52.060Z,60.04
2023-01-11T08:47:20.358Z,59.66
2023-01-11T08:49:48.271Z,59.99
2023-01-11T08:52:17.752Z,59.71
2023-01-11T08:54:46.096Z,59.82
2023-01-11T08:57:14.434Z,59.39
2023-01-11T08:59:43.278Z,58.86
2023-01-11T09:02:12.845Z,60.35
2023-01-11T09:04:43.164Z,58.23
2023-01-11T09:07:12.011Z,57.24
2023-01-11T09:09:41.852Z,56.75
2023-01-11T09:12:10.281Z,57.70
2023-01-11T09:14:39.882Z,57.82
2023-01-11T09:17:09.072Z,58.19
2023-01-11T09:19:38.411Z,56.92
2023-01-11T09:22:10.116Z,58.35
2023-01-11T09:24:38.788Z,57.83
2023-01-11T09:27:11.715Z,58.35
2023-01-11T09:29:42.432Z,57.02
2023-01-11T09:32:11.950Z,57.48
2023-01-11T09:34:41.900Z,56.95
2023-01-11T09:37:10.377Z,57.04
2023-01-11T09:39:39.195Z,56.40
2023-01-11T09:42:31.696Z,58.15
2023-01-11T09:45:14.036Z,55.23
2023-01-11T09:48:01.128Z,53.84
2023-01-11T09:50:34.057Z,55.33
2023-01-11T09:53:09.760Z,54.46
2023-01-11T09:55:44.819Z,54.38
2023-01-11T09:58:29.302Z,54.46
2023-01-11T10:01:10.091Z,55.12
2023-01-11T10:03:49.980Z,53.29
2023-01-11T10:06:29.402Z,53.08
2023-01-11T10:21:29.249Z,52.92
2023-01-11T10:24:20.935Z,53.81
2023-01-11T10:26:58.965Z,54.24
2023-01-11T10:29:50.926Z,53.83
2023-01-11T10:32:50.527Z,53.38
2023-01-11T10:38:56.787Z,53.80
2023-01-11T10:41:37.709Z,53.25
2023-01-11T10:44:09.940Z,52.64
2023-01-11T10:46:45.830Z,51.80
2023-01-11T10:49:37.553Z,51.20
2023-01-11T10:52:35.254Z,51.34
2023-01-11T10:55:24.138Z,53.16
2023-01-11T10:58:01.589Z,53.61
2023-01-11T11:00:51.355Z,51.75
2023-01-11T11:03:32.962Z,51.96
2023-01-11T11:06:34.803Z,52.41
2023-01-11T11:09:19.102Z,53.45
2023-01-11T11:12:10.896Z,50.78
2023-01-11T11:15:00.875Z,49.53
2023-01-11T11:17:38.258Z,50.53
2023-01-11T11:20:24.057Z,48.28
2023-01-11T11:22:56.881Z,49.46
2023-01-11T11:25:27.641Z,49.02
2023-01-11T11:27:58.826Z,48.50
2023-01-11T11:30:31.934Z,48.29
2023-01-11T11:33:12.931Z,48.47
2023-01-11T11:35:46.881Z,48.24
2023-01-11T11:38:23.052Z,48.35
2023-01-11T11:40:59.323Z,48.93
2023-01-11T11:43:28.552Z,47.95
2023-01-11T11:46:01.323Z,47.72
2023-01-11T11:48:33.798Z,48.58
2023-01-11T11:51:05.365Z,48.91
2023-01-11T11:53:36.638Z,48.04
2023-01-11T11:56:19.793Z,48.03
2023-01-11T11:58:50.466Z,49.56
2023-01-11T12:01:37.769Z,49.44
2023-01-11T12:04:15.507Z,49.17
2023-01-11T12:06:46.461Z,46.90
2023-01-11T12:09:27.607Z,47.43
2023-01-11T12:11:58.324Z,48.12
2023-01-11T12:14:30.307Z,47.29
2023-01-11T12:16:59.085Z,47.53
2023-01-11T12:19:47.911Z,47.43
2023-01-11T12:22:19.795Z,46.68
2023-01-11T12:25:03.733Z,48.05
2023-01-11T12:27:53.991Z,47.19
2023-01-11T12:30:27.143Z,46.50
2023-01-11T12:33:23.835Z,46.99
2023-01-11T12:36:30.012Z,47.52
2023-01-11T12:39:07.049Z,49.72
2023-01-11T12:41:45.763Z,49.58
2023-01-11T12:44:55.817Z,48.38
2023-01-11T12:47:57.967Z,48.87
2023-01-11T12:50:33.710Z,48.08
2023-01-11T12:53:16.103Z,47.45
2023-01-11T12:56:00.748Z,47.70
2023-01-11T12:58:34.740Z,46.45
2023-01-11T13:01:16.680Z,46.21
2023-01-11T13:04:03.861Z,45.99
2023-01-11T13:06:44.998Z,47.46
2023-01-11T13:09:36.748Z,48.02
2023-01-11T13:12:11.322Z,47.38
2023-01-11T13:15:04.897Z,48.27
2023-01-11T13:17:37.233Z,47.34
2023-01-11T13:20:24.784Z,47.90
2023-01-11T13:23:01.878Z,49.29
2023-01-11T13:25:39.373Z,48.89
2023-01-11T13:28:35.959Z,48.53
2023-01-11T13:31:06.054Z,49.66
2023-01-11T13:33:38.921Z,48.03
2023-01-11T13:36:22.580Z,47.74
2023-01-11T13:39:13.958Z,48.57
2023-01-11T13:41:52.865Z,49.22
2023-01-11T13:44:24.894Z,49.16
2023-01-11T13:50:17.750Z,49.47
2023-01-11T13:52:55.842Z,49.43
2023-01-11T13:55:31.286Z,49.88
2023-01-11T13:58:43.082Z,48.29
2023-01-11T14:04:43.908Z,49.34
2023-01-11T14:08:01.112Z,50.59
2023-01-11T14:10:43.774Z,50.76
2023-01-11T14:14:09.867Z,51.37
2023-01-11T14:16:45.277Z,51.68
2023-01-11T14:19:20.796Z,50.41
2023-01-11T14:22:04.812Z,50.92
2023-01-11T14:24:38.548Z,51.49
2023-01-11T14:27:33.141Z,51.25
2023-01-11T14:32:54.939Z,51.70
2023-01-11T14:35:43.125Z,51.47
2023-01-11T14:41:26.929Z,51.88
2023-01-11T14:44:13.829Z,51.90
2023-01-11T14:47:19.770Z,52.60
2023-01-11T14:50:08.567Z,52.75
2023-01-11T14:52:40.696Z,52.77
2023-01-11T14:55:25.808Z,53.02
2023-01-11T14:57:55.140Z,52.58
2023-01-11T15:00:32.576Z,53.82
2023-01-11T15:03:01.316Z,53.21
2023-01-11T15:05:38.950Z,53.32
2023-01-11T15:08:13.559Z,53.31
2023-01-11T15:11:00.994Z,53.91
2023-01-11T15:13:40.820Z,54.53
2023-01-11T15:19:37.091Z,54.65
2023-01-11T15:22:06.944Z,54.40
2023-01-11T15:24:43.492Z,54.45
2023-01-11T15:27:24.236Z,54.69
2023-01-11T15:32:40.078Z,54.73
2023-01-11T15:35:37.230Z,55.09
2023-01-11T15:38:23.915Z,56.01
2023-01-11T15:41:18.475Z,56.26
2023-01-11T15:44:36.391Z,56.84
2023-01-11T15:47:19.956Z,56.06
2023-01-11T15:50:18.049Z,56.18
2023-01-11T15:53:10.098Z,56.50
2023-01-11T15:56:15.282Z,56.25
2023-01-11T15:58:50.930Z,56.71
2023-01-11T16:01:28.957Z,56.32
2023-01-11T16:04:14.981Z,56.36
2023-01-11T16:06:53.119Z,56.30
2023-01-11T16:09:46.536Z,56.05
2023-01-11T16:12:33.751Z,56.10
2023-01-11T16:15:18.784Z,56.42
2023-01-11T16:17:51.343Z,56.75
2023-01-11T16:20:25.381Z,56.49
2023-01-11T16:23:03.833Z,57.54
2023-01-11T16:25:42.265Z,58.12
2023-01-11T16:28:30.012Z,58.30
2023-01-11T16:31:05.017Z,58.62
2023-01-11T16:33:35.102Z,58.43
2023-01-11T16:36:24.040Z,58.14
2023-01-11T16:38:58.966Z,58.04
2023-01-11T16:42:00.937Z,58.33
2023-01-11T16:44:42.934Z,57.98
2023-01-11T16:47:23.495Z,58.12
2023-01-11T16:50:25.272Z,58.23
2023-01-11T16:53:06.953Z,58.83
2023-01-11T16:58:29.824Z,58.80
2023-01-11T17:01:02.204Z,58.57
2023-01-11T17:03:44.113Z,58.66
2023-01-11T17:06:28.853Z,58.39
2023-01-11T17:09:13.375Z,59.25
2023-01-11T17:11:50.847Z,59.39
2023-01-11T17:14:32.782Z,59.30
2023-01-11T17:17:08.222Z,59.14
2023-01-11T17:19:38.959Z,59.12
2023-01-11T17:22:16.421Z,59.22
2023-01-11T17:24:55.087Z,58.94
2023-01-11T17:27:40.829Z,59.19
2023-01-11T17:30:16.867Z,59.47
2023-01-11T17:32:52.096Z,59.46
2023-01-11T17:35:29.816Z,59.33
2023-01-11T17:38:13.983Z,59.28
2023-01-11T17:40:48.686Z,59.56
2023-01-11T17:46:27.618Z,59.06
2023-01-11T17:49:09.140Z,59.63
2023-01-11T17:51:43.846Z,60.30
2023-01-11T17:57:01.718Z,59.35
2023-01-11T17:59:34.821Z,59.67
2023-01-11T18:02:05.763Z,59.74
2023-01-11T18:04:47.003Z,59.61
2023-01-11T18:07:28.715Z,59.42
2023-01-11T18:10:04.176Z,59.60
2023-01-11T18:12:45.732Z,59.53
2023-01-11T18:15:26.746Z,59.62
2023-01-11T18:20:48.734Z,59.54
2023-01-11T18:23:23.226Z,59.62
2023-01-11T18:28:57.776Z,60.20
2023-01-11T18:31:26.874Z,60.95
2023-01-11T18:33:57.952Z,61.38
2023-01-11T18:39:15.772Z,61.07
2023-01-11T18:42:05.899Z,60.97
2023-01-11T18:44:39.529Z,60.97
2023-01-11T18:47:25.949Z,61.46
2023-01-11T18:49:56.764Z,60.96
2023-01-11T18:52:34.805Z,61.26
2023-01-11T18:55:11.060Z,60.94
2023-01-11T18:57:48.733Z,61.57
2023-01-11T19:00:18.876Z,61.37
2023-01-11T19:02:47.110Z,60.56
2023-01-11T19:05:23.900Z,61.46
2023-01-11T19:07:55.834Z,61.15
2023-01-11T19:10:24.602Z,61.30
2023-01-11T19:13:00.806Z,61.30
2023-01-11T19:15:39.230Z,61.07
2023-01-11T19:18:17.828Z,61.16
2023-01-11T19:20:48.099Z,61.45
2023-01-11T19:23:17.891Z,61.74
2023-01-11T19:25:58.939Z,61.52
2023-01-11T19:31:11.801Z,62.17
2023-01-11T19:33:41.892Z,61.63
2023-01-11T19:36:10.790Z,61.56
2023-01-11T19:38:40.772Z,61.83
2023-01-11T19:41:16.800Z,61.73
2023-01-11T19:43:47.241Z,61.25
2023-01-11T19:48:55.334Z,61.10
2023-01-11T19:51:30.758Z,61.00
2023-01-11T19:54:04.937Z,61.06
2023-01-11T19:56:41.914Z,62.06
2023-01-11T19:59:16.262Z,61.75
2023-01-11T20:01:46.845Z,61.83
2023-01-11T20:06:58.864Z,61.81
2023-01-11T20:09:36.707Z,61.63
2023-01-11T20:12:11.787Z,61.77
2023-01-11T20:14:45.737Z,61.50
2023-01-11T20:17:15.828Z,61.65
2023-01-11T20:19:58.716Z,61.51
2023-01-11T20:22:33.774Z,61.85
2023-01-11T20:25:02.124Z,61.51
2023-01-11T20:27:32.003Z,61.32
2023-01-11T20:29:59.730Z,61.07
2023-01-11T20:32:41.748Z,61.70
2023-01-11T20:35:18.856Z,61.40
2023-01-11T20:37:49.129Z,61.30
2023-01-11T20:40:23.697Z,61.36
2023-01-11T20:42:53.133Z,61.16
2023-01-11T20:47:56.749Z,61.20
2023-01-11T20:50:25.147Z,62.40
2023-01-11T20:52:53.335Z,62.25
2023-01-11T20:55:26.944Z,61.52
2023-01-11T20:57:55.930Z,61.61
2023-01-11T21:00:28.890Z,62.54
2023-01-11T21:02:58.790Z,61.81
2023-01-11T21:05:27.739Z,62.52
2023-01-11T21:07:57.707Z,62.63
2023-01-11T21:10:28.192Z,61.74
2023-01-11T21:15:27.653Z,62.07
2023-01-11T21:18:00.323Z,62.25
2023-01-11T21:20:32.126Z,62.23
2023-01-11T21:23:02.080Z,62.58
2023-01-11T21:25:38.098Z,62.61
2023-01-11T21:28:08.221Z,62.40
2023-01-11T21:30:39.937Z,61.81
2023-01-11T21:33:15.900Z,61.75
2023-01-11T21:35:44.621Z,61.68
2023-01-11T21:38:13.181Z,61.65
2023-01-11T21:40:42.942Z,61.30
2023-01-11T21:43:14.874Z,61.48
2023-01-11T21:45:54.172Z,61.38
2023-01-11T21:48:23.015Z,61.96
2023-01-11T21:50:52.379Z,62.35
2023-01-11T21:53:20.734Z,62.70
2023-01-11T21:55:49.897Z,62.48
2023-01-11T21:58:22.161Z,62.42
2023-01-11T22:00:51.071Z,61.89
2023-01-11T22:03:19.162Z,61.53
2023-01-11T22:05:50.970Z,61.38
2023-01-11T22:08:20.788Z,62.19
2023-01-11T22:11:02.331Z,62.27
2023-01-11T22:13:36.972Z,61.80
2023-01-11T22:16:11.643Z,61.64
2023-01-11T22:18:43.300Z,61.55
2023-01-11T22:21:18.139Z,61.94
2023-01-11T22:23:47.885Z,61.75
2023-01-11T22:26:18.892Z,62.62
2023-01-11T22:29:08.892Z,61.86
2023-01-11T22:31:36.825Z,61.73
2023-01-11T22:34:07.043Z,61.15
2023-01-11T22:36:38.863Z,61.71
2023-01-11T22:39:07.886Z,62.62
2023-01-11T22:41:41.889Z,62.90
2023-01-11T22:44:10.603Z,62.99
2023-01-11T22:46:39.689Z,63.48
2023-01-11T22:49:08.167Z,63.68
2023-01-11T22:51:36.591Z,63.50
2023-01-11T22:54:05.130Z,63.05
2023-01-11T22:56:34.348Z,62.75
2023-01-11T22:59:02.880Z,62.45
2023-01-11T23:01:33.905Z,62.58
2023-01-11T23:04:03.645Z,63.30
2023-01-11T23:06:39.752Z,62.82
2023-01-11T23:09:15.997Z,62.76
2023-01-11T23:12:04.221Z,61.46
2023-01-11T23:14:34.954Z,62.25
2023-01-11T23:17:08.276Z,63.07
2023-01-11T23:19:40.817Z,63.33
2023-01-11T23:22:09.889Z,63.78
2023-01-11T23:24:39.073Z,63.82
2023-01-11T23:27:09.076Z,63.86
2023-01-11T23:29:37.594Z,63.37
2023-01-11T23:32:05.682Z,63.43
2023-01-11T23:34:33.685Z,63.67
2023-01-11T23:37:01.238Z,63.46
2023-01-11T23:39:32.966Z,63.56
2023-01-11T23:42:19.431Z,63.38
2023-01-11T23:44:47.552Z,63.26
2023-01-11T23:47:21.163Z,63.87
2023-01-11T23:50:01.158Z,63.41
2023-01-11T23:52:31.364Z,62.73
2023-01-11T23:55:00.795Z,62.88
2023-01-11T23:57:28.579Z,62.78
2023-01-11T23:59:56.996Z,63.02
